createdAt,value
2019-01-13T00:01:59.170Z,15.17
2019-01-13T00:04:29.795Z,21.23
2019-01-13T00:07:00.402Z,21.80
2019-01-13T00:09:31.048Z,17.77
2019-01-13T00:12:01.525Z,12.13
2019-01-13T00:14:32.371Z,11.93
2019-01-13T00:17:04.009Z,15.50
2019-01-13T00:19:34.624Z,23.03
2019-01-13T00:22:05.820Z,15.33
2019-01-13T00:24:36.466Z,16.90
2019-01-13T00:27:07.914Z,16.13
2019-01-13T00:29:38.609Z,17.57
2019-01-13T00:32:09.226Z,18.93
2019-01-13T00:34:39.932Z,20.83
2019-01-13T00:37:10.539Z,18.33
2019-01-13T00:39:41.124Z,15.37
2019-01-13T00:42:11.751Z,21.03
2019-01-13T00:44:43.783Z,17.23
2019-01-13T00:47:14.468Z,19.57
2019-01-13T00:49:45.099Z,18.67
2019-01-13T00:52:15.678Z,18.23
2019-01-13T00:54:46.322Z,16.60
2019-01-13T00:57:16.818Z,14.30
2019-01-13T00:59:47.385Z,15.10
2019-01-13T01:02:18.010Z,15.23
2019-01-13T01:04:48.637Z,17.77
2019-01-13T01:07:19.223Z,18.53
2019-01-13T01:09:49.889Z,19.67
2019-01-13T01:12:20.375Z,19.20
2019-01-13T01:14:50.911Z,18.40
2019-01-13T01:17:21.399Z,17.73
2019-01-13T01:19:51.924Z,20.67
2019-01-13T01:22:22.521Z,15.57
2019-01-13T01:24:53.116Z,16.07
2019-01-13T01:27:23.732Z,17.10
2019-01-13T01:29:54.337Z,17.10
2019-01-13T01:32:26.225Z,18.00
2019-01-13T01:34:59.702Z,22.13
2019-01-13T01:37:30.258Z,17.80
2019-01-13T01:40:00.784Z,20.27
2019-01-13T01:42:31.411Z,18.07
2019-01-13T01:45:01.990Z,19.73
2019-01-13T01:47:32.562Z,17.10
2019-01-13T01:50:03.189Z,18.73
2019-01-13T01:52:33.786Z,18.73
2019-01-13T01:55:04.781Z,21.83
2019-01-13T01:57:35.357Z,18.13
2019-01-13T02:00:10.426Z,17.07
2019-01-13T02:02:41.033Z,17.47
2019-01-13T02:05:11.537Z,19.17
2019-01-13T02:07:42.140Z,14.33
2019-01-13T02:10:20.630Z,14.13
2019-01-13T02:12:51.917Z,18.23
2019-01-13T02:15:24.994Z,13.73
2019-01-13T02:17:55.630Z,19.07
2019-01-13T02:20:26.117Z,14.73
2019-01-13T02:22:56.733Z,15.63
2019-01-13T02:25:28.099Z,12.77
2019-01-13T02:27:58.654Z,15.03
2019-01-13T02:30:29.318Z,15.43
2019-01-13T02:32:59.908Z,16.07
2019-01-13T02:35:30.393Z,17.40
2019-01-13T02:38:01.001Z,18.10
2019-01-13T02:40:31.587Z,15.00
2019-01-13T02:43:02.244Z,21.23
2019-01-13T02:45:32.839Z,19.50
2019-01-13T02:48:03.454Z,21.50
2019-01-13T02:50:34.073Z,22.70
2019-01-13T02:53:04.726Z,23.10
2019-01-13T02:55:35.249Z,22.10
2019-01-13T02:58:07.037Z,21.90
2019-01-13T03:00:37.645Z,21.17
2019-01-13T03:03:08.368Z,30.40
2019-01-13T03:05:38.949Z,25.23
2019-01-13T03:08:09.634Z,27.80
2019-01-13T03:10:40.223Z,29.47
2019-01-13T03:13:10.917Z,29.23
2019-01-13T03:15:41.569Z,27.33
2019-01-13T03:18:12.229Z,31.17
2019-01-13T03:20:42.876Z,31.23
2019-01-13T03:23:13.481Z,30.90
2019-01-13T03:25:44.149Z,33.50
2019-01-13T03:28:14.780Z,29.77
2019-01-13T03:30:45.501Z,28.17
2019-01-13T03:33:16.137Z,32.20
2019-01-13T03:35:46.801Z,31.43
2019-01-13T03:38:17.429Z,28.13
2019-01-13T03:40:48.066Z,30.07
2019-01-13T03:43:18.703Z,28.20
2019-01-13T03:45:49.406Z,23.13
2019-01-13T03:48:20.033Z,25.03
2019-01-13T03:50:50.711Z,26.10
2019-01-13T03:53:21.207Z,26.50
2019-01-13T03:56:11.006Z,26.73
2019-01-13T03:58:41.664Z,25.57
2019-01-13T04:01:18.520Z,25.00
2019-01-13T04:03:44.535Z,25.03
2019-01-13T04:06:15.222Z,23.40
2019-01-13T04:08:45.857Z,31.97
2019-01-13T04:11:16.495Z,27.53
2019-01-13T04:13:47.110Z,29.23
2019-01-13T04:16:17.715Z,29.60
2019-01-13T04:18:48.379Z,28.73
2019-01-13T04:21:19.031Z,31.53
2019-01-13T04:23:49.675Z,29.90
2019-01-13T04:26:20.311Z,40.97
2019-01-13T04:28:50.910Z,29.00
2019-01-13T04:31:26.596Z,99.60
2019-01-13T04:33:53.830Z,122.00
2019-01-13T04:36:24.517Z,333.83
2019-01-13T04:38:55.132Z,80.80
2019-01-13T04:41:25.801Z,38.60
2019-01-13T04:43:56.425Z,81.43
2019-01-13T04:46:27.051Z,44.27
2019-01-13T04:48:57.667Z,39.70
2019-01-13T04:51:28.253Z,41.17
2019-01-13T04:53:58.870Z,32.97
2019-01-13T04:56:29.530Z,62.77
2019-01-13T04:59:00.163Z,43.17
2019-01-13T05:01:34.730Z,33.07
2019-01-13T05:04:03.046Z,33.57
2019-01-13T05:06:33.682Z,29.83
2019-01-13T05:09:06.277Z,28.20
2019-01-13T05:11:36.945Z,34.63
2019-01-13T05:14:07.550Z,29.20
2019-01-13T05:16:38.207Z,41.30
2019-01-13T05:19:08.784Z,36.77
2019-01-13T05:21:39.388Z,52.40
2019-01-13T05:24:09.984Z,38.57
2019-01-13T05:26:40.610Z,37.50
2019-01-13T05:29:11.220Z,31.87
2019-01-13T05:31:42.358Z,36.30
2019-01-13T05:34:12.929Z,32.77
2019-01-13T05:36:43.646Z,24.57
2019-01-13T05:39:14.252Z,29.80
2019-01-13T05:41:44.949Z,25.60
2019-01-13T05:44:15.569Z,25.10
2019-01-13T05:46:46.199Z,31.67
2019-01-13T05:49:16.836Z,25.77
2019-01-13T05:51:47.532Z,31.93
2019-01-13T05:54:18.149Z,21.93
2019-01-13T05:56:48.835Z,25.07
2019-01-13T05:59:19.541Z,21.40
2019-01-13T06:01:50.187Z,19.50
2019-01-13T06:04:20.803Z,15.87
2019-01-13T06:06:51.492Z,18.20
2019-01-13T06:09:22.107Z,19.13
2019-01-13T06:11:52.692Z,16.47
2019-01-13T06:14:23.138Z,17.03
2019-01-13T06:16:53.665Z,16.07
2019-01-13T06:19:24.245Z,14.30
2019-01-13T06:21:54.906Z,14.83
2019-01-13T06:24:25.561Z,14.33
2019-01-13T06:26:56.189Z,13.37
2019-01-13T06:29:26.745Z,15.13
2019-01-13T06:31:57.251Z,11.93
2019-01-13T06:34:27.882Z,14.57
2019-01-13T06:36:58.483Z,14.33
2019-01-13T06:39:29.073Z,12.10
2019-01-13T06:41:59.676Z,11.17
2019-01-13T06:44:30.244Z,11.23
2019-01-13T06:47:00.728Z,10.20
2019-01-13T06:49:31.400Z,10.53
2019-01-13T06:52:03.051Z,11.10
2019-01-13T06:54:33.608Z,11.97
2019-01-13T06:57:04.223Z,10.27
2019-01-13T06:59:34.899Z,10.57
2019-01-13T07:02:05.556Z,11.67
2019-01-13T07:04:36.212Z,10.47
2019-01-13T07:07:06.818Z,9.80
2019-01-13T07:09:37.446Z,15.50
2019-01-13T07:12:07.950Z,14.47
2019-01-13T07:14:38.716Z,10.53
2019-01-13T07:17:09.324Z,9.57
2019-01-13T07:19:39.891Z,10.00
2019-01-13T07:22:10.309Z,10.20
2019-01-13T07:24:40.976Z,7.00
2019-01-13T07:27:11.447Z,8.97
2019-01-13T07:29:42.043Z,9.73
2019-01-13T07:32:13.834Z,7.87
2019-01-13T07:34:44.326Z,8.87
2019-01-13T07:37:15.393Z,7.00
2019-01-13T07:39:45.978Z,7.53
2019-01-13T07:42:16.594Z,8.73
2019-01-13T07:44:47.274Z,7.40
2019-01-13T07:47:17.717Z,10.60
2019-01-13T07:49:48.323Z,6.03
2019-01-13T07:52:18.969Z,7.90
2019-01-13T07:54:49.585Z,8.27
2019-01-13T07:57:20.193Z,7.10
2019-01-13T07:59:50.858Z,6.73
2019-01-13T08:02:21.474Z,8.20
2019-01-13T08:04:52.052Z,6.53
2019-01-13T08:07:22.652Z,6.63
2019-01-13T08:10:13.157Z,5.93
2019-01-13T08:12:43.854Z,4.93
2019-01-13T08:15:16.642Z,6.30
2019-01-13T08:17:47.228Z,4.30
2019-01-13T08:20:23.104Z,5.67
2019-01-13T08:22:53.720Z,10.50
2019-01-13T08:25:24.395Z,9.33
2019-01-13T08:27:54.882Z,4.90
2019-01-13T08:30:25.528Z,5.93
2019-01-13T08:32:56.075Z,5.73
2019-01-13T08:35:26.662Z,7.90
2019-01-13T08:37:57.277Z,5.37
2019-01-13T08:40:27.824Z,3.97
2019-01-13T08:42:58.259Z,4.40
2019-01-13T08:45:28.990Z,5.67
2019-01-13T08:47:59.800Z,5.27
2019-01-13T08:50:30.379Z,7.37
2019-01-13T08:53:00.924Z,4.90
2019-01-13T08:55:31.610Z,6.50
2019-01-13T08:58:02.198Z,6.23
2019-01-13T09:00:35.964Z,4.67
2019-01-13T09:03:07.770Z,3.50
2019-01-13T09:05:38.397Z,4.23
2019-01-13T09:08:09.022Z,4.00
2019-01-13T09:10:39.589Z,2.50
2019-01-13T09:13:10.215Z,3.97
2019-01-13T09:15:40.881Z,5.73
2019-01-13T09:18:11.467Z,3.90
2019-01-13T09:20:42.093Z,5.13
2019-01-13T09:23:12.580Z,4.57
2019-01-13T09:25:43.167Z,5.17
2019-01-13T09:28:13.802Z,2.00
2019-01-13T09:30:44.459Z,2.27
2019-01-13T09:33:15.084Z,2.30
2019-01-13T09:35:45.720Z,1.90
2019-01-13T09:38:16.358Z,2.17
2019-01-13T09:40:47.024Z,2.30
2019-01-13T09:43:17.608Z,1.30
2019-01-13T09:45:48.215Z,1.43
2019-01-13T09:48:19.835Z,2.73
2019-01-13T09:50:50.417Z,1.73
2019-01-13T09:53:20.913Z,4.03
2019-01-13T09:55:51.492Z,3.47
2019-01-13T09:58:22.099Z,3.30
2019-01-13T10:00:52.723Z,3.67
2019-01-13T10:03:23.388Z,6.73
2019-01-13T10:05:54.004Z,15.87
2019-01-13T10:08:24.690Z,13.83
2019-01-13T10:10:55.176Z,11.30
2019-01-13T10:13:25.772Z,44.67
2019-01-13T10:15:56.378Z,43.00
2019-01-13T10:18:27.004Z,16.33
2019-01-13T10:20:58.962Z,4.77
2019-01-13T10:23:29.588Z,9.30
2019-01-13T10:26:00.215Z,3.63
2019-01-13T10:28:30.789Z,3.87
2019-01-13T10:31:03.305Z,6.70
2019-01-13T10:33:33.613Z,2.17
2019-01-13T10:36:04.278Z,2.47
2019-01-13T10:38:34.954Z,1.80
2019-01-13T10:41:05.550Z,2.13
2019-01-13T10:43:36.196Z,3.83
2019-01-13T10:46:06.733Z,2.33
2019-01-13T10:48:37.421Z,2.27
2019-01-13T10:51:08.005Z,2.57
2019-01-13T10:53:38.671Z,4.27
2019-01-13T10:56:09.213Z,1.63
2019-01-13T10:58:39.833Z,2.43
2019-01-13T11:01:10.399Z,2.50
2019-01-13T11:03:40.965Z,1.37
2019-01-13T11:06:11.592Z,1.67
2019-01-13T11:08:42.250Z,1.83
2019-01-13T11:11:12.785Z,2.20
2019-01-13T11:13:43.411Z,2.27
2019-01-13T11:16:14.051Z,3.37
2019-01-13T11:18:44.727Z,3.00
2019-01-13T11:21:15.308Z,3.63
2019-01-13T11:23:46.995Z,3.00
2019-01-13T11:26:17.601Z,2.97
2019-01-13T11:28:48.228Z,2.60
2019-01-13T11:31:20.234Z,2.80
2019-01-13T11:33:50.951Z,2.90
2019-01-13T11:36:21.546Z,3.27
2019-01-13T11:38:52.122Z,3.17
2019-01-13T11:41:22.660Z,3.57
2019-01-13T11:43:53.114Z,8.37
2019-01-13T11:46:23.720Z,6.17
2019-01-13T11:48:54.327Z,8.37
2019-01-13T11:51:25.023Z,6.43
2019-01-13T11:53:55.679Z,9.63
2019-01-13T11:56:26.308Z,13.47
2019-01-13T11:58:56.981Z,7.63
2019-01-13T12:01:27.600Z,8.30
2019-01-13T12:03:58.208Z,7.07
2019-01-13T12:06:28.821Z,3.97
2019-01-13T12:08:59.656Z,7.10
2019-01-13T12:11:30.276Z,4.90
2019-01-13T12:14:00.894Z,4.93
2019-01-13T12:16:32.345Z,9.03
2019-01-13T12:19:02.973Z,4.17
2019-01-13T12:21:33.577Z,5.80
2019-01-13T12:24:04.344Z,8.33
2019-01-13T12:26:34.890Z,7.27
2019-01-13T12:29:05.566Z,8.63
2019-01-13T12:31:36.112Z,7.50
2019-01-13T12:34:06.749Z,7.07
2019-01-13T12:36:37.345Z,6.67
2019-01-13T12:39:10.992Z,7.10
2019-01-13T12:41:42.268Z,6.53
2019-01-13T12:44:12.930Z,8.77
2019-01-13T12:46:43.551Z,9.20
2019-01-13T12:49:14.248Z,7.97
2019-01-13T12:51:44.834Z,8.43
2019-01-13T12:54:15.360Z,6.87
2019-01-13T12:56:46.027Z,8.07
2019-01-13T12:59:16.655Z,7.53
2019-01-13T13:01:47.288Z,7.83
2019-01-13T13:04:17.785Z,7.63
2019-01-13T13:06:48.404Z,8.23
2019-01-13T13:09:18.899Z,8.63
2019-01-13T13:11:49.575Z,9.70
2019-01-13T13:14:20.140Z,7.93
2019-01-13T13:16:50.836Z,9.63
2019-01-13T13:19:21.432Z,9.20
2019-01-13T13:21:51.918Z,8.13
2019-01-13T13:24:22.484Z,8.97
2019-01-13T13:26:53.131Z,9.37
2019-01-13T13:29:23.747Z,10.30
2019-01-13T13:31:54.733Z,13.33
2019-01-13T13:34:25.370Z,16.47
2019-01-13T13:36:58.365Z,15.83
2019-01-13T13:39:28.987Z,22.77
2019-01-13T13:42:01.148Z,15.40
2019-01-13T13:44:31.746Z,15.77
2019-01-13T13:47:02.342Z,16.27
2019-01-13T13:49:32.985Z,15.30
2019-01-13T13:52:03.655Z,14.17
2019-01-13T13:54:34.261Z,8.60
2019-01-13T13:57:04.927Z,12.23
2019-01-13T13:59:35.546Z,5.83
2019-01-13T14:02:06.134Z,6.50
2019-01-13T14:04:36.757Z,6.50
2019-01-13T14:07:07.381Z,5.60
2019-01-13T14:09:37.979Z,6.60
2019-01-13T14:12:08.563Z,6.00
2019-01-13T14:14:39.030Z,7.50
2019-01-13T14:17:09.636Z,7.30
2019-01-13T14:19:41.303Z,6.90
2019-01-13T14:22:11.939Z,7.30
2019-01-13T14:24:42.596Z,6.20
2019-01-13T14:27:13.232Z,6.57
2019-01-13T14:29:43.842Z,12.17
2019-01-13T14:32:14.564Z,9.73
2019-01-13T14:34:45.101Z,6.07
2019-01-13T14:37:15.756Z,11.13
2019-01-13T14:39:48.850Z,18.30
2019-01-13T14:42:18.539Z,6.20
2019-01-13T14:44:49.174Z,18.17
2019-01-13T14:47:19.900Z,7.83
2019-01-13T14:49:50.538Z,12.20
2019-01-13T14:52:21.214Z,4.97
2019-01-13T14:54:51.830Z,4.00
2019-01-13T14:57:22.525Z,4.00
2019-01-13T14:59:53.124Z,4.17
2019-01-13T15:02:23.823Z,3.50
2019-01-13T15:04:54.427Z,3.07
2019-01-13T15:07:25.121Z,4.50
2019-01-13T15:09:55.748Z,2.93
2019-01-13T15:12:26.399Z,3.70
2019-01-13T15:14:57.000Z,3.53
2019-01-13T15:17:27.676Z,3.33
2019-01-13T15:19:58.331Z,3.40
2019-01-13T15:22:28.899Z,4.37
2019-01-13T15:24:59.443Z,3.00
2019-01-13T15:27:30.111Z,3.87
2019-01-13T15:30:00.746Z,4.63
2019-01-13T15:32:31.374Z,3.73
2019-01-13T15:35:02.019Z,3.23
2019-01-13T15:37:32.706Z,6.10
2019-01-13T15:40:03.492Z,9.53
2019-01-13T15:42:34.188Z,9.77
2019-01-13T15:45:05.945Z,10.33
2019-01-13T15:47:36.662Z,16.27
2019-01-13T15:50:10.037Z,9.17
2019-01-13T15:52:40.543Z,5.17
2019-01-13T15:55:11.210Z,6.80
2019-01-13T15:57:41.788Z,4.63
2019-01-13T16:00:15.706Z,4.00
2019-01-13T16:02:46.299Z,3.47
2019-01-13T16:05:17.026Z,4.80
2019-01-13T16:07:47.594Z,3.30
2019-01-13T16:10:20.075Z,3.57
2019-01-13T16:12:50.694Z,2.30
2019-01-13T16:15:21.362Z,7.37
2019-01-13T16:17:51.956Z,4.80
2019-01-13T16:20:28.365Z,3.20
2019-01-13T16:22:58.992Z,2.27
2019-01-13T16:25:29.668Z,3.10
2019-01-13T16:28:00.263Z,4.47
2019-01-13T16:30:32.010Z,2.03
2019-01-13T16:33:02.644Z,2.13
2019-01-13T16:35:33.433Z,1.87
2019-01-13T16:38:04.009Z,2.57
2019-01-13T16:40:34.715Z,4.63
2019-01-13T16:43:05.401Z,2.57
2019-01-13T16:45:35.966Z,2.67
2019-01-13T16:48:06.927Z,3.17
2019-01-13T16:50:37.561Z,1.77
2019-01-13T16:53:08.128Z,2.90
2019-01-13T16:55:38.760Z,2.50
2019-01-13T16:58:09.441Z,1.80
2019-01-13T17:00:40.047Z,1.53
2019-01-13T17:03:10.690Z,4.10
2019-01-13T17:05:41.326Z,2.90
2019-01-13T17:08:12.002Z,15.00
2019-01-13T17:10:42.708Z,29.50
2019-01-13T17:13:13.318Z,7.53
2019-01-13T17:15:43.983Z,9.37
2019-01-13T17:18:14.618Z,4.87
2019-01-13T17:20:45.323Z,2.77
2019-01-13T17:23:15.939Z,1.90
2019-01-13T17:25:46.625Z,3.00
2019-01-13T17:28:17.122Z,1.10
2019-01-13T17:30:47.768Z,1.23
2019-01-13T17:33:18.354Z,3.13
2019-01-13T17:35:48.961Z,2.57
2019-01-13T17:38:19.608Z,2.20
2019-01-13T17:40:50.235Z,2.23
2019-01-13T17:43:20.852Z,1.67
2019-01-13T17:45:51.505Z,2.63
2019-01-13T17:48:22.081Z,1.93
2019-01-13T17:50:52.740Z,1.73
2019-01-13T17:53:23.365Z,3.40
2019-01-13T17:55:54.030Z,2.43
2019-01-13T17:58:24.650Z,4.77
2019-01-13T18:01:29.175Z,11.00
2019-01-13T18:04:01.218Z,5.37
2019-01-13T18:06:31.934Z,5.50
2019-01-13T18:09:02.629Z,4.33
2019-01-13T18:11:33.306Z,5.47
2019-01-13T18:14:03.962Z,5.17
2019-01-13T18:16:34.649Z,22.00
2019-01-13T18:19:05.155Z,35.30
2019-01-13T18:21:35.781Z,56.97
2019-01-13T18:24:06.409Z,6.73
2019-01-13T18:26:37.064Z,7.47
2019-01-13T18:29:07.721Z,6.70
2019-01-13T18:31:38.297Z,3.53
2019-01-13T18:34:08.934Z,10.93
2019-01-13T18:36:39.589Z,4.03
2019-01-13T18:39:10.231Z,5.97
2019-01-13T18:41:40.920Z,4.90
2019-01-13T18:44:11.417Z,7.93
2019-01-13T18:46:41.942Z,6.33
2019-01-13T18:49:12.550Z,5.23
2019-01-13T18:51:43.147Z,8.47
2019-01-13T18:54:13.815Z,5.53
2019-01-13T18:57:03.571Z,5.20
2019-01-13T18:59:34.259Z,5.80
2019-01-13T19:02:05.206Z,6.53
2019-01-13T19:04:35.877Z,6.27
2019-01-13T19:07:06.486Z,5.33
2019-01-13T19:09:37.154Z,5.40
2019-01-13T19:12:07.760Z,5.97
2019-01-13T19:14:48.618Z,5.20
2019-01-13T19:17:24.481Z,5.63
2019-01-13T19:20:10.078Z,5.43
2019-01-13T19:22:42.681Z,26.00
2019-01-13T19:25:22.260Z,7.67
2019-01-13T19:27:52.916Z,11.50
2019-01-13T19:30:23.544Z,6.00
2019-01-13T19:32:54.218Z,9.00
2019-01-13T19:35:24.826Z,9.13
2019-01-13T19:37:55.481Z,7.33
2019-01-13T19:40:26.078Z,6.03
2019-01-13T19:42:56.783Z,7.07
2019-01-13T19:45:27.400Z,5.53
2019-01-13T19:47:58.075Z,7.37
2019-01-13T19:50:28.712Z,6.77
2019-01-13T19:53:00.491Z,7.37
2019-01-13T19:55:31.274Z,6.57
2019-01-13T19:58:01.930Z,7.07
2019-01-13T20:00:36.849Z,7.07
2019-01-13T20:03:07.858Z,7.07
2019-01-13T20:05:38.442Z,4.23
2019-01-13T20:08:09.116Z,7.10
2019-01-13T20:10:39.773Z,7.03
2019-01-13T20:13:10.440Z,4.83
2019-01-13T20:15:41.038Z,9.00
2019-01-13T20:18:11.601Z,6.97
2019-01-13T20:20:42.157Z,6.93
2019-01-13T20:23:12.834Z,6.33
2019-01-13T20:25:43.490Z,7.53
2019-01-13T20:28:14.086Z,10.67
2019-01-13T20:30:44.733Z,16.60
2019-01-13T20:33:15.378Z,17.77
2019-01-13T20:35:46.055Z,14.83
2019-01-13T20:38:16.721Z,12.33
2019-01-13T20:40:47.357Z,14.57
2019-01-13T20:43:17.994Z,9.53
2019-01-13T20:45:48.649Z,15.67
2019-01-13T20:48:19.234Z,9.97
2019-01-13T20:50:49.842Z,14.17
2019-01-13T20:53:20.459Z,15.87
2019-01-13T20:55:51.155Z,15.23
2019-01-13T20:58:21.830Z,16.73
2019-01-13T21:00:52.516Z,11.57
2019-01-13T21:03:23.173Z,10.10
2019-01-13T21:05:53.810Z,6.53
2019-01-13T21:08:24.455Z,5.03
2019-01-13T21:10:55.101Z,4.77
2019-01-13T21:13:25.737Z,9.00
2019-01-13T21:15:56.423Z,4.97
2019-01-13T21:18:27.050Z,5.43
2019-01-13T21:20:57.696Z,10.80
2019-01-13T21:23:28.302Z,4.13
2019-01-13T21:25:58.938Z,5.97
2019-01-13T21:28:29.514Z,6.50
2019-01-13T21:31:00.131Z,8.67
2019-01-13T21:33:30.647Z,13.63
2019-01-13T21:36:01.272Z,9.97
2019-01-13T21:38:31.779Z,17.53
2019-01-13T21:41:02.425Z,5.80
2019-01-13T21:43:32.931Z,6.80
2019-01-13T21:46:03.458Z,7.47
2019-01-13T21:48:34.074Z,6.73
2019-01-13T21:51:04.719Z,10.43
2019-01-13T21:53:35.326Z,8.03
2019-01-13T21:56:05.942Z,6.57
2019-01-13T21:58:36.559Z,7.47
2019-01-13T22:01:07.875Z,5.00
2019-01-13T22:03:38.531Z,8.47
2019-01-13T22:06:09.509Z,12.57
2019-01-13T22:08:40.184Z,9.30
2019-01-13T22:11:10.640Z,6.23
2019-01-13T22:13:41.276Z,10.33
2019-01-13T22:16:11.962Z,8.53
2019-01-13T22:18:42.591Z,8.93
2019-01-13T22:21:13.205Z,7.20
2019-01-13T22:23:43.861Z,13.00
2019-01-13T22:26:14.487Z,8.70
2019-01-13T22:28:45.115Z,11.23
2019-01-13T22:31:22.148Z,13.80
2019-01-13T22:33:48.046Z,17.70
2019-01-13T22:36:18.552Z,16.00
2019-01-13T22:38:49.167Z,23.97
2019-01-13T22:41:19.794Z,14.13
2019-01-13T22:43:50.450Z,13.30
2019-01-13T22:46:21.047Z,13.23
2019-01-13T22:48:51.763Z,21.43
2019-01-13T22:51:22.419Z,15.30
2019-01-13T22:53:53.018Z,20.33
2019-01-13T22:56:23.532Z,14.93
2019-01-13T22:58:54.129Z,17.47
2019-01-13T23:01:36.097Z,17.13
2019-01-13T23:04:11.264Z,21.70
2019-01-13T23:06:41.910Z,15.63
2019-01-13T23:09:13.205Z,13.77
2019-01-13T23:11:43.852Z,17.60
2019-01-13T23:14:14.549Z,13.27
2019-01-13T23:16:45.184Z,21.93
2019-01-13T23:19:15.911Z,14.73
2019-01-13T23:21:46.520Z,23.60
2019-01-13T23:24:17.163Z,23.90
2019-01-13T23:26:47.790Z,25.53
2019-01-13T23:29:18.445Z,19.37
2019-01-13T23:31:49.093Z,18.37
2019-01-13T23:34:20.698Z,14.50
2019-01-13T23:36:51.315Z,19.27
2019-01-13T23:39:22.014Z,19.57
2019-01-13T23:41:52.667Z,20.27
2019-01-13T23:44:23.354Z,25.57
2019-01-13T23:46:53.999Z,18.13
2019-01-13T23:49:24.796Z,27.93
2019-01-13T23:51:55.432Z,14.27
2019-01-13T23:54:27.248Z,15.07
2019-01-13T23:56:57.894Z,25.43
2019-01-13T23:59:28.511Z,11.80
